Time;durP1;ratioP1;P1;durP2;ratioP2;P2;SDS_P1;SDS_P2;PMS_P1;PMS_P2;Temp;Humidity;BMP_temperature;BMP_pressure;BME280_temperature;BME280_humidity;BME280_pressure;Samples;Min_cycle;Max_cycle;Signal;HPM_P1;HPM_P2
2022/07/07 00:00:19;;;;;;;4.70;4.30;;;14.60;99.90;;;;;;5045036;28;20202;-45
2022/07/07 00:02:46;;;;;;;4.30;4.00;;;14.60;99.90;;;;;;5040673;28;20187;-50
2022/07/07 00:05:14;;;;;;;4.93;4.53;;;14.70;99.90;;;;;;5044345;28;20211;-46
2022/07/07 00:07:41;;;;;;;4.77;4.33;;;14.70;99.90;;;;;;5019985;28;20562;-48
2022/07/07 00:10:09;;;;;;;4.47;4.17;;;14.70;99.90;;;;;;5044521;28;20854;-47
2022/07/07 00:12:36;;;;;;;4.77;4.47;;;14.70;99.90;;;;;;5038841;28;20199;-46
2022/07/07 00:15:03;;;;;;;5.23;4.83;;;14.70;99.90;;;;;;5043451;28;20259;-45
2022/07/07 00:17:30;;;;;;;4.97;4.57;;;14.70;99.90;;;;;;5043223;28;20688;-49
2022/07/07 00:19:57;;;;;;;4.57;4.23;;;14.70;99.90;;;;;;5042565;28;20191;-49
2022/07/07 00:22:25;;;;;;;4.70;4.30;;;14.80;99.90;;;;;;5030353;28;20214;-47
2022/07/07 00:24:52;;;;;;;4.17;3.90;;;14.70;99.90;;;;;;5039799;28;20272;-46
2022/07/07 00:27:19;;;;;;;4.27;3.97;;;14.70;99.90;;;;;;5043776;28;20191;-45
2022/07/07 00:29:46;;;;;;;4.63;4.23;;;14.80;99.90;;;;;;5039799;28;20931;-44
2022/07/07 00:32:13;;;;;;;4.30;3.90;;;14.80;99.90;;;;;;5044093;28;20195;-47
2022/07/07 00:34:39;;;;;;;4.63;4.23;;;14.80;99.90;;;;;;5040288;28;20253;-49
2022/07/07 00:37:06;;;;;;;4.20;3.90;;;14.80;99.90;;;;;;5044090;28;20214;-46
2022/07/07 00:39:35;;;;;;;4.80;4.40;;;14.80;99.90;;;;;;5027974;28;20207;-45
2022/07/07 00:42:02;;;;;;;4.57;4.27;;;14.90;99.90;;;;;;5042887;28;20198;-46
2022/07/07 00:44:29;;;;;;;4.33;4.03;;;14.90;99.90;;;;;;5042435;28;20764;-48
2022/07/07 00:46:58;;;;;;;4.10;3.80;;;14.80;99.90;;;;;;5041793;28;20199;-44
2022/07/07 00:49:26;;;;;;;3.67;3.43;;;14.80;99.90;;;;;;5043787;28;20305;-46
2022/07/07 00:51:52;;;;;;;5.37;4.20;;;14.80;99.90;;;;;;5040996;28;20753;-49
2022/07/07 00:54:20;;;;;;;5.13;3.23;;;14.80;99.90;;;;;;5029245;28;20223;-43
2022/07/07 00:56:48;;;;;;;3.67;3.43;;;14.90;99.90;;;;;;5039732;28;20991;-45
2022/07/07 00:59:15;;;;;;;3.90;3.60;;;14.90;99.90;;;;;;5044063;28;20269;-43
2022/07/07 01:01:43;;;;;;;4.07;3.53;;;14.90;99.90;;;;;;5039848;28;20203;-42
2022/07/07 01:04:12;;;;;;;3.13;2.93;;;14.90;99.90;;;;;;5043325;28;20299;-43
2022/07/07 01:06:40;;;;;;;3.20;3.00;;;14.90;99.90;;;;;;5040459;28;20946;-42
2022/07/07 01:09:07;;;;;;;3.67;3.43;;;14.90;99.90;;;;;;5037297;28;20192;-42
2022/07/07 01:11:53;;;;;;;3.07;2.90;;;14.90;99.90;;;;;;5027314;28;20568;-43
2022/07/07 01:14:21;;;;;;;3.50;3.30;;;15.00;99.90;;;;;;5037788;28;20226;-44
2022/07/07 01:16:49;;;;;;;2.90;2.80;;;14.90;99.90;;;;;;5039430;28;20199;-46
2022/07/07 01:19:16;;;;;;;3.60;3.30;;;15.00;99.90;;;;;;5042940;28;20226;-43
2022/07/07 01:21:51;;;;;;;3.50;3.30;;;15.00;99.90;;;;;;5039859;28;20892;-43
2022/07/07 01:24:20;;;;;;;3.70;3.40;;;15.00;99.90;;;;;;5043091;28;20230;-42
2022/07/07 01:26:47;;;;;;;3.70;3.40;;;15.00;99.90;;;;;;5025350;28;20899;-43
2022/07/07 01:29:14;;;;;;;3.60;3.40;;;15.00;99.90;;;;;;5043440;28;20206;-42
2022/07/07 01:31:41;;;;;;;4.17;3.87;;;15.00;99.90;;;;;;5039736;28;20234;-42
2022/07/07 01:34:08;;;;;;;4.27;3.90;;;15.00;99.90;;;;;;5043050;28;20290;-42
2022/07/07 01:36:35;;;;;;;4.40;4.10;;;15.00;99.90;;;;;;5040790;28;20195;-42
2022/07/07 01:39:02;;;;;;;4.17;3.87;;;15.00;99.90;;;;;;5038792;28;20226;-47
2022/07/07 01:41:30;;;;;;;3.83;3.53;;;15.00;99.90;;;;;;5028094;28;20606;-43
2022/07/07 01:43:57;;;;;;;4.03;3.80;;;15.00;99.90;;;;;;5040577;28;20432;-44
2022/07/07 01:46:24;;;;;;;4.10;3.80;;;15.10;99.90;;;;;;5042823;28;20203;-44
2022/07/07 01:48:51;;;;;;;3.90;3.60;;;15.00;99.90;;;;;;5040211;28;20453;-42
2022/07/07 01:51:18;;;;;;;4.37;4.07;;;15.00;99.90;;;;;;5043324;28;20206;-42
2022/07/07 01:53:45;;;;;;;4.60;4.20;;;15.10;99.90;;;;;;5039046;28;20954;-42
2022/07/07 01:56:12;;;;;;;4.50;4.20;;;15.10;99.90;;;;;;5030571;28;20245;-45
2022/07/07 01:58:40;;;;;;;4.67;4.27;;;15.10;99.90;;;;;;5036898;28;20227;-43
2022/07/07 02:01:07;;;;;;;5.00;4.60;;;15.10;99.90;;;;;;5035605;28;20222;-44
2022/07/07 02:03:34;;;;;;;5.47;5.00;;;15.10;99.90;;;;;;5033866;28;20215;-43
2022/07/07 02:06:01;;;;;;;4.70;4.40;;;15.10;99.90;;;;;;5035321;28;20198;-42
2022/07/07 02:08:28;;;;;;;6.27;5.77;;;15.10;99.90;;;;;;5029335;28;20196;-43
2022/07/07 02:11:14;;;;;;;6.30;5.80;;;15.10;99.90;;;;;;5026049;28;20317;-47
2022/07/07 02:13:44;;;;;;;7.13;6.53;;;15.20;99.90;;;;;;5038672;28;20227;-44
2022/07/07 02:16:12;;;;;;;6.37;5.87;;;15.20;99.90;;;;;;5043183;28;20207;-44
2022/07/07 02:18:41;;;;;;;6.60;6.07;;;15.20;99.90;;;;;;5039769;28;20757;-42
2022/07/07 02:21:09;;;;;;;7.23;6.63;;;15.20;99.90;;;;;;5043139;28;20707;-44
2022/07/07 02:23:38;;;;;;;6.87;6.17;;;15.20;99.90;;;;;;5039602;28;20696;-42
2022/07/07 02:26:04;;;;;;;6.47;5.87;;;15.20;99.90;;;;;;5029160;28;20211;-43
2022/07/07 02:28:32;;;;;;;6.97;6.37;;;15.20;99.90;;;;;;5040706;28;20203;-45
2022/07/07 02:31:01;;;;;;;6.53;5.93;;;15.30;99.90;;;;;;5041310;28;20203;-42
2022/07/07 02:33:28;;;;;;;6.70;6.20;;;15.20;99.90;;;;;;5045047;28;20223;-43
2022/07/07 02:35:56;;;;;;;6.60;6.00;;;15.20;99.90;;;;;;5044083;28;20199;-42
2022/07/07 02:38:23;;;;;;;7.20;6.50;;;15.30;99.90;;;;;;5043651;28;20310;-44
2022/07/07 02:40:49;;;;;;;7.60;7.00;;;15.30;99.90;;;;;;5028282;28;24150;-45
2022/07/07 02:43:16;;;;;;;8.70;7.53;;;15.30;99.90;;;;;;5045747;28;20238;-43
2022/07/07 02:45:44;;;;;;;8.20;7.33;;;15.30;99.90;;;;;;5042269;28;20195;-43
2022/07/07 02:48:15;;;;;;;7.77;7.07;;;15.30;99.90;;;;;;5046457;28;20200;-42
2022/07/07 02:50:42;;;;;;;7.97;7.17;;;15.30;99.90;;;;;;5042558;28;20574;-42
2022/07/07 02:53:10;;;;;;;8.53;7.73;;;15.30;99.90;;;;;;5046100;28;20222;-42
2022/07/07 02:55:38;;;;;;;8.03;7.33;;;15.40;99.90;;;;;;5043116;28;20195;-43
2022/07/07 02:58:07;;;;;;;7.90;7.20;;;15.40;99.90;;;;;;5031950;28;20222;-43
2022/07/07 03:00:34;;;;;;;7.83;7.13;;;15.40;99.90;;;;;;5043604;28;20257;-43
2022/07/07 03:03:02;;;;;;;8.10;7.30;;;15.40;99.90;;;;;;5044866;28;20230;-43
2022/07/07 03:05:30;;;;;;;8.07;6.87;;;15.40;99.90;;;;;;5044429;28;20211;-46
2022/07/07 03:07:57;;;;;;;8.40;7.60;;;15.50;99.90;;;;;;5042288;28;20905;-44
2022/07/07 03:10:24;;;;;;;8.00;7.20;;;15.50;99.90;;;;;;5041542;28;20204;-42
2022/07/07 03:12:52;;;;;;;8.77;7.97;;;15.50;99.90;;;;;;5027185;28;20455;-42
2022/07/07 03:15:19;;;;;;;8.93;7.27;;;15.50;99.90;;;;;;5041743;28;20277;-41
2022/07/07 03:17:47;;;;;;;9.50;7.93;;;15.50;99.90;;;;;;5041457;28;20195;-42
2022/07/07 03:20:15;;;;;;;9.60;8.70;;;15.50;99.90;;;;;;5046032;28;20653;-43
2022/07/07 03:22:44;;;;;;;10.60;9.53;;;15.50;99.90;;;;;;5041889;28;20196;-45
2022/07/07 03:25:12;;;;;;;9.87;8.83;;;15.50;99.90;;;;;;5045492;28;20227;-44
2022/07/07 03:27:39;;;;;;;10.57;9.23;;;15.50;99.90;;;;;;5031121;28;20207;-45
2022/07/07 03:30:08;;;;;;;9.10;8.30;;;15.50;99.90;;;;;;5044353;28;20205;-42
2022/07/07 03:32:35;;;;;;;9.97;9.00;;;15.60;99.90;;;;;;5043017;28;20210;-42
2022/07/07 03:35:03;;;;;;;10.00;9.00;;;15.60;99.90;;;;;;5044128;28;20233;-44
2022/07/07 03:37:32;;;;;;;11.63;9.70;;;15.60;99.90;;;;;;5036276;28;20207;-42
2022/07/07 03:40:01;;;;;;;10.97;9.70;;;15.60;99.90;;;;;;5043211;28;20246;-42
2022/07/07 03:42:28;;;;;;;13.03;11.10;;;15.60;99.90;;;;;;5034716;28;20265;-42
2022/07/07 03:44:54;;;;;;;12.23;9.83;;;15.60;99.90;;;;;;5021291;28;20216;-42
2022/07/07 03:47:21;;;;;;;11.77;10.23;;;15.60;99.90;;;;;;5038313;28;20687;-44
2022/07/07 03:49:48;;;;;;;12.53;10.60;;;15.60;99.90;;;;;;5022534;28;20211;-42
2022/07/07 03:52:15;;;;;;;10.83;9.73;;;15.60;99.90;;;;;;5036964;28;20199;-43
2022/07/07 03:54:42;;;;;;;13.23;10.53;;;15.60;99.90;;;;;;5027803;28;20229;-45
2022/07/07 03:57:10;;;;;;;15.23;11.23;;;15.60;99.90;;;;;;5040971;28;20672;-43
2022/07/07 03:59:37;;;;;;;13.17;11.33;;;15.60;99.90;;;;;;5022629;28;20545;-42
2022/07/07 04:02:05;;;;;;;12.77;11.10;;;15.60;99.90;;;;;;5042319;28;20195;-46
2022/07/07 04:04:31;;;;;;;14.00;11.10;;;15.60;99.90;;;;;;5035103;28;20628;-44
2022/07/07 04:06:58;;;;;;;14.37;11.47;;;15.60;99.90;;;;;;5038963;28;20401;-45
2022/07/07 04:09:25;;;;;;;13.27;11.13;;;15.70;99.90;;;;;;5032345;28;20249;-42
2022/07/07 04:11:52;;;;;;;12.80;9.70;;;15.70;99.90;;;;;;5034922;28;20203;-45
2022/07/07 04:14:20;;;;;;;14.47;10.00;;;15.70;99.90;;;;;;5034916;28;20234;-44
2022/07/07 04:16:47;;;;;;;13.33;10.30;;;15.70;99.90;;;;;;5026555;28;20778;-42
2022/07/07 04:19:15;;;;;;;10.90;9.80;;;15.70;99.90;;;;;;5041723;28;20230;-42
2022/07/07 04:21:42;;;;;;;10.90;9.40;;;15.70;99.90;;;;;;5040704;28;20278;-42
2022/07/07 04:24:09;;;;;;;10.40;9.10;;;15.70;99.90;;;;;;5039688;28;20222;-43
2022/07/07 04:26:36;;;;;;;16.50;9.70;;;15.80;99.90;;;;;;5033070;28;20207;-42
2022/07/07 04:29:03;;;;;;;9.67;8.33;;;15.70;99.90;;;;;;5025273;28;20208;-46
2022/07/07 04:31:31;;;;;;;11.43;8.33;;;15.70;99.90;;;;;;5028082;28;20210;-45
2022/07/07 04:33:58;;;;;;;8.03;6.27;;;15.70;99.90;;;;;;5035338;28;20222;-42
2022/07/07 04:36:25;;;;;;;7.20;6.20;;;15.70;99.90;;;;;;5032893;28;20577;-41
2022/07/07 04:38:52;;;;;;;7.13;6.43;;;15.70;99.90;;;;;;5040913;28;20215;-42
2022/07/07 04:41:19;;;;;;;6.90;6.20;;;15.70;99.90;;;;;;5032662;28;20625;-63
2022/07/07 04:43:46;;;;;;;5.90;5.40;;;15.70;99.90;;;;;;5036866;28;20221;-63
2022/07/07 04:46:12;;;;;;;7.10;5.70;;;15.80;99.90;;;;;;5032636;28;20563;-63
2022/07/07 04:48:41;;;;;;;5.93;5.33;;;15.70;99.90;;;;;;5023531;28;20941;-64
2022/07/07 04:51:07;;;;;;;5.30;4.80;;;15.70;99.90;;;;;;5040416;28;20199;-47
2022/07/07 04:53:34;;;;;;;5.73;4.40;;;15.80;99.90;;;;;;5039888;28;20308;-43
2022/07/07 04:56:01;;;;;;;4.10;3.80;;;15.80;99.90;;;;;;5026916;28;20204;-44
2022/07/07 04:58:28;;;;;;;5.47;4.10;;;15.80;99.90;;;;;;5033240;28;20204;-42
2022/07/07 05:00:55;;;;;;;4.73;4.23;;;15.80;99.90;;;;;;5034432;28;20203;-46
2022/07/07 05:03:22;;;;;;;3.97;3.67;;;15.80;99.90;;;;;;5030209;28;20226;-42
2022/07/07 05:05:50;;;;;;;3.80;3.50;;;15.80;99.90;;;;;;5040148;28;20195;-45
2022/07/07 05:08:17;;;;;;;3.60;3.00;;;15.90;99.90;;;;;;5039085;28;20672;-46
2022/07/07 05:10:44;;;;;;;3.47;2.97;;;15.80;99.90;;;;;;5032805;28;20262;-42
2022/07/07 05:13:10;;;;;;;2.53;1.70;;;15.80;99.90;;;;;;5038879;28;20223;-42
2022/07/07 05:15:37;;;;;;;3.03;2.20;;;15.80;99.90;;;;;;5035523;28;20199;-43
2022/07/07 05:18:04;;;;;;;2.00;1.77;;;15.90;99.90;;;;;;5042458;28;20211;-41
2022/07/07 05:20:31;;;;;;;2.30;1.73;;;15.90;99.90;;;;;;5027004;28;20219;-44
2022/07/07 05:23:02;;;;;;;1.90;1.80;;;15.90;99.90;;;;;;5035414;28;20219;-47
2022/07/07 05:25:29;;;;;;;1.70;1.60;;;15.90;99.90;;;;;;5034237;28;20260;-42
2022/07/07 05:27:56;;;;;;;1.57;1.47;;;15.90;99.90;;;;;;5020355;28;20216;-43
2022/07/07 05:30:23;;;;;;;1.93;1.47;;;16.00;99.90;;;;;;5039921;28;20199;-44
2022/07/07 05:32:49;;;;;;;1.73;1.63;;;16.00;99.90;;;;;;5033967;28;20380;-44
2022/07/07 05:35:17;;;;;;;1.80;1.70;;;16.00;99.90;;;;;;5025376;28;20210;-44
2022/07/07 05:37:43;;;;;;;1.80;1.70;;;16.00;99.90;;;;;;5031929;28;20207;-42
2022/07/07 05:40:12;;;;;;;2.40;1.43;;;16.00;99.90;;;;;;5040428;28;20607;-45
2022/07/07 05:42:40;;;;;;;2.30;1.83;;;16.00;99.90;;;;;;5029546;28;21360;-44
2022/07/07 05:45:08;;;;;;;2.27;1.53;;;16.10;99.90;;;;;;5037028;28;20223;-47
2022/07/07 05:47:35;;;;;;;2.03;1.60;;;16.10;99.90;;;;;;5029868;28;20214;-43
2022/07/07 05:50:02;;;;;;;2.80;1.60;;;16.20;99.90;;;;;;5021402;28;20216;-48
2022/07/07 05:52:28;;;;;;;2.23;1.90;;;16.20;99.90;;;;;;5030235;28;20210;-42
2022/07/07 05:54:56;;;;;;;3.80;1.50;;;16.20;99.90;;;;;;5034583;28;20211;-45
2022/07/07 05:57:25;;;;;;;1.47;1.37;;;16.30;99.90;;;;;;5033187;28;20196;-42
2022/07/07 05:59:51;;;;;;;1.70;1.40;;;16.30;99.90;;;;;;5023753;28;20255;-43
2022/07/07 06:02:18;;;;;;;1.50;1.40;;;16.30;99.90;;;;;;5037253;28;20661;-44
2022/07/07 06:04:45;;;;;;;1.83;1.40;;;16.30;99.90;;;;;;5018219;28;20353;-42
2022/07/07 06:07:13;;;;;;;1.37;1.27;;;16.40;99.90;;;;;;5046156;28;20206;-44
2022/07/07 06:09:40;;;;;;;1.70;1.40;;;16.40;99.90;;;;;;5037114;28;20956;-43
2022/07/07 06:12:07;;;;;;;2.80;1.83;;;16.40;99.90;;;;;;5040202;28;20207;-42
2022/07/07 06:14:36;;;;;;;1.63;1.40;;;16.50;99.90;;;;;;5035547;28;20233;-45
2022/07/07 06:17:03;;;;;;;2.10;1.30;;;16.50;99.90;;;;;;5040685;28;20214;-44
2022/07/07 06:19:30;;;;;;;2.20;1.20;;;16.50;99.90;;;;;;5032943;28;20893;-43
2022/07/07 06:21:57;;;;;;;0.90;0.90;;;16.50;99.90;;;;;;5029473;28;20211;-45
2022/07/07 06:24:24;;;;;;;1.50;1.20;;;16.60;99.90;;;;;;5043189;28;20215;-43
2022/07/07 06:26:50;;;;;;;1.93;1.27;;;16.60;99.90;;;;;;5042704;28;20198;-43
2022/07/07 06:29:18;;;;;;;1.50;1.40;;;16.60;99.90;;;;;;5043574;28;20195;-43
2022/07/07 06:31:46;;;;;;;1.20;0.83;;;16.60;99.90;;;;;;5030229;28;20207;-42
2022/07/07 06:34:13;;;;;;;1.10;1.00;;;16.60;99.90;;;;;;5038232;28;20727;-43
2022/07/07 06:36:40;;;;;;;1.00;1.00;;;16.60;99.90;;;;;;5020392;28;20215;-43
2022/07/07 06:39:07;;;;;;;1.97;1.10;;;16.60;99.90;;;;;;5029771;28;20230;-46
2022/07/07 06:41:35;;;;;;;3.73;1.30;;;16.60;99.90;;;;;;5041378;28;20528;-45
2022/07/07 06:44:02;;;;;;;1.60;1.40;;;16.60;99.90;;;;;;5033360;28;20251;-48
2022/07/07 06:46:29;;;;;;;1.20;1.10;;;16.70;99.90;;;;;;5039156;28;20668;-42
2022/07/07 06:48:57;;;;;;;1.50;1.40;;;16.60;99.90;;;;;;5034484;28;20203;-43
2022/07/07 06:51:24;;;;;;;3.47;1.57;;;16.60;99.90;;;;;;5043228;28;20207;-43
2022/07/07 06:53:51;;;;;;;2.93;1.40;;;16.60;99.90;;;;;;5030229;28;20227;-45
2022/07/07 06:56:18;;;;;;;3.33;1.50;;;16.60;99.90;;;;;;5037159;28;20199;-66
2022/07/07 06:58:45;;;;;;;2.90;1.70;;;16.60;99.90;;;;;;5042484;28;20737;-62
2022/07/07 07:01:11;;;;;;;3.40;1.90;;;16.60;99.90;;;;;;5034470;28;23313;-62
2022/07/07 07:03:38;;;;;;;4.10;1.40;;;16.60;99.90;;;;;;5040198;28;20223;-61
2022/07/07 07:06:06;;;;;;;3.90;1.97;;;16.60;99.90;;;;;;5036634;28;20225;-66
2022/07/07 07:08:33;;;;;;;2.87;2.03;;;16.70;99.90;;;;;;5026928;28;20212;-66
2022/07/07 07:11:00;;;;;;;3.30;1.70;;;16.70;99.90;;;;;;5031616;28;20206;-64
2022/07/07 07:13:27;;;;;;;3.00;1.90;;;16.80;99.90;;;;;;5029250;28;20932;-62
2022/07/07 07:15:53;;;;;;;2.40;1.90;;;16.90;99.90;;;;;;5040090;28;20726;-61
2022/07/07 07:18:20;;;;;;;2.67;1.80;;;17.00;99.90;;;;;;5031870;28;20203;-62
2022/07/07 07:20:47;;;;;;;3.90;2.20;;;17.10;99.90;;;;;;5033220;28;20731;-63
2022/07/07 07:23:15;;;;;;;4.60;1.97;;;17.20;99.90;;;;;;5028895;28;20219;-61
2022/07/07 07:25:41;;;;;;;3.87;2.33;;;17.40;99.90;;;;;;5044873;28;20274;-67
2022/07/07 07:28:08;;;;;;;5.03;1.90;;;17.60;99.90;;;;;;5025651;28;20211;-42
2022/07/07 07:30:35;;;;;;;3.67;1.70;;;17.70;99.90;;;;;;5037388;28;20188;-42
2022/07/07 07:33:02;;;;;;;4.67;1.80;;;17.60;99.90;;;;;;5030114;28;20215;-43
2022/07/07 07:35:28;;;;;;;5.00;1.83;;;17.60;99.90;;;;;;5037322;28;20214;-42
2022/07/07 07:37:56;;;;;;;4.77;1.90;;;17.50;99.90;;;;;;5041520;28;20750;-43
2022/07/07 07:40:24;;;;;;;5.80;1.93;;;17.50;99.90;;;;;;5028930;28;20294;-41
2022/07/07 07:42:51;;;;;;;5.77;2.10;;;17.50;99.90;;;;;;5037245;28;20191;-41
2022/07/07 07:45:19;;;;;;;5.33;2.17;;;17.40;99.90;;;;;;5035651;28;20199;-41
2022/07/07 07:47:47;;;;;;;2.40;1.47;;;17.30;99.90;;;;;;5033035;28;20199;-41
2022/07/07 07:50:16;;;;;;;3.90;1.50;;;17.10;99.90;;;;;;5022734;28;20679;-42
2022/07/07 07:52:44;;;;;;;2.13;1.30;;;16.70;99.90;;;;;;5042959;28;20215;-41
2022/07/07 07:55:14;;;;;;;2.80;1.43;;;16.60;99.90;;;;;;5030158;28;20220;-42
2022/07/07 07:57:42;;;;;;;3.03;1.13;;;16.50;99.90;;;;;;5042374;28;20188;-41
2022/07/07 08:00:12;;;;;;;1.77;1.33;;;16.50;99.90;;;;;;5041377;28;20222;-41
2022/07/07 08:02:39;;;;;;;2.80;1.37;;;16.50;99.90;;;;;;5034961;28;20188;-41
2022/07/07 08:05:07;;;;;;;3.87;1.80;;;16.60;99.90;;;;;;5029677;28;20249;-44
2022/07/07 08:07:34;;;;;;;1.27;1.17;;;16.60;99.90;;;;;;5038020;28;20817;-42
2022/07/07 08:10:01;;;;;;;1.77;1.57;;;16.70;99.90;;;;;;5045185;28;20663;-42
2022/07/07 08:12:28;;;;;;;3.37;1.83;;;16.80;99.90;;;;;;5026602;28;20219;-42
2022/07/07 08:14:56;;;;;;;2.73;1.70;;;16.80;99.90;;;;;;5044018;28;20231;-43
2022/07/07 08:17:24;;;;;;;3.20;1.60;;;16.90;99.90;;;;;;5038943;28;20196;-42
2022/07/07 08:19:51;;;;;;;4.70;1.87;;;17.00;99.90;;;;;;5033625;28;20699;-42
2022/07/07 08:22:18;;;;;;;3.37;1.87;;;17.00;99.90;;;;;;5034939;28;20520;-42
2022/07/07 08:24:44;;;;;;;3.57;1.97;;;17.00;99.90;;;;;;5038761;28;20218;-41
2022/07/07 08:27:11;;;;;;;4.80;1.70;;;17.20;99.90;;;;;;5021220;28;20218;-45
2022/07/07 08:29:39;;;;;;;5.07;2.17;;;17.30;99.90;;;;;;5038449;28;21013;-41
2022/07/07 08:32:10;;;;;;;3.73;1.50;;;17.30;99.90;;;;;;5043469;28;20230;-43
2022/07/07 08:34:38;;;;;;;3.27;1.70;;;17.30;99.90;;;;;;5025729;28;20996;-43
2022/07/07 08:37:05;;;;;;;4.30;1.63;;;17.30;99.90;;;;;;5040182;28;20219;-42
2022/07/07 08:39:32;;;;;;;2.20;2.00;;;17.30;99.90;;;;;;5038229;28;20203;-44
2022/07/07 08:42:00;;;;;;;3.67;2.10;;;17.30;99.90;;;;;;5029416;28;20210;-44
2022/07/07 08:44:27;;;;;;;5.17;2.50;;;17.30;99.90;;;;;;5037809;28;20222;-43
2022/07/07 08:46:55;;;;;;;5.97;2.20;;;17.40;99.90;;;;;;5032327;28;20195;-43
2022/07/07 08:49:23;;;;;;;5.27;2.07;;;17.40;99.90;;;;;;5037930;28;20200;-42
2022/07/07 08:51:51;;;;;;;4.13;1.97;;;17.50;99.90;;;;;;5040792;28;20676;-43
2022/07/07 08:54:18;;;;;;;4.27;1.67;;;17.50;99.90;;;;;;5032693;28;20227;-43
2022/07/07 08:56:45;;;;;;;4.10;1.60;;;17.60;99.90;;;;;;5027952;28;20211;-47
2022/07/07 08:59:14;;;;;;;4.90;2.20;;;17.50;99.90;;;;;;5039700;28;20215;-46
2022/07/07 09:01:41;;;;;;;4.77;1.70;;;17.60;99.90;;;;;;5033772;28;20293;-44
2022/07/07 09:04:08;;;;;;;3.07;1.77;;;17.80;99.90;;;;;;5043452;28;20229;-42
2022/07/07 09:06:37;;;;;;;4.07;1.70;;;18.00;99.90;;;;;;5024002;28;20215;-41
2022/07/07 09:09:05;;;;;;;4.57;1.70;;;18.10;99.90;;;;;;5041285;28;20245;-43
2022/07/07 09:11:34;;;;;;;1.97;1.50;;;18.20;99.90;;;;;;5034569;28;20211;-42
2022/07/07 09:14:11;;;;;;;5.33;1.77;;;18.20;99.90;;;;;;5024199;28;20215;-41
2022/07/07 09:16:38;;;;;;;3.40;1.20;;;18.10;99.90;;;;;;5036247;28;20196;-44
2022/07/07 09:19:09;;;;;;;1.07;0.97;;;17.90;99.90;;;;;;5039543;28;20684;-47
2022/07/07 09:21:37;;;;;;;3.33;1.07;;;17.80;99.90;;;;;;5032737;28;20222;-42
2022/07/07 09:24:06;;;;;;;4.60;1.33;;;17.70;99.90;;;;;;5043298;28;20299;-42
2022/07/07 09:26:35;;;;;;;2.43;1.20;;;17.70;99.90;;;;;;5033329;28;20200;-41
2022/07/07 09:29:03;;;;;;;2.73;0.90;;;17.70;99.90;;;;;;5027248;28;20295;-44
2022/07/07 09:31:52;;;;;;;2.73;1.03;;;17.70;99.90;;;;;;5036755;28;20196;-44
2022/07/07 09:34:20;;;;;;;2.60;1.40;;;17.80;99.90;;;;;;5034506;28;20265;-42
2022/07/07 09:39:41;;;;;;;1.87;1.23;;;17.90;99.90;;;;;;5036594;28;20368;-43
2022/07/07 09:42:23;;;;;;;4.57;1.37;;;18.00;99.90;;;;;;5036630;28;20217;-43
2022/07/07 09:44:52;;;;;;;3.37;1.50;;;18.10;99.90;;;;;;5020426;28;20907;-42
2022/07/07 09:47:20;;;;;;;4.10;1.20;;;18.30;99.90;;;;;;5040852;28;20199;-60
2022/07/07 09:49:59;;;;;;;3.73;1.13;;;18.30;99.90;;;;;;5038713;28;20278;-60
2022/07/07 09:52:28;;;;;;;3.37;1.00;;;18.20;99.90;;;;;;5023467;28;20221;-43
2022/07/07 09:54:59;;;;;;;3.60;1.40;;;18.10;99.90;;;;;;5038664;28;20234;-46
2022/07/07 09:57:26;;;;;;;6.70;1.43;;;18.10;99.90;;;;;;5034851;28;20199;-45
2022/07/07 09:59:54;;;;;;;3.13;1.17;;;18.00;99.90;;;;;;5028183;28;20215;-45
2022/07/07 10:02:24;;;;;;;2.73;0.90;;;18.00;99.90;;;;;;5040608;28;20231;-44
2022/07/07 10:04:53;;;;;;;1.90;0.93;;;18.00;99.90;;;;;;5038043;28;20226;-45
2022/07/07 10:07:22;;;;;;;4.03;1.20;;;18.10;99.90;;;;;;5040972;28;20215;-44
2022/07/07 10:09:53;;;;;;;2.53;1.20;;;18.10;99.90;;;;;;5036435;28;20214;-46
2022/07/07 10:12:24;;;;;;;1.77;1.40;;;18.00;99.90;;;;;;5036746;28;20195;-44
2022/07/07 10:14:55;;;;;;;2.83;1.40;;;18.00;99.90;;;;;;5026892;28;20251;-43
2022/07/07 10:17:23;;;;;;;2.37;1.40;;;18.10;99.90;;;;;;5038578;28;20203;-42
2022/07/07 10:19:50;;;;;;;5.10;1.40;;;18.10;99.90;;;;;;5040410;28;20199;-45
2022/07/07 10:22:18;;;;;;;3.30;1.93;;;18.00;99.90;;;;;;5041057;28;20211;-44
2022/07/07 10:24:46;;;;;;;1.70;1.20;;;18.20;99.90;;;;;;5027178;28;20219;-45
2022/07/07 10:27:16;;;;;;;5.67;1.20;;;18.30;99.90;;;;;;5037518;28;20200;-43
2022/07/07 10:29:45;;;;;;;3.47;1.30;;;18.50;99.90;;;;;;5024480;28;20214;-43
2022/07/07 10:32:14;;;;;;;2.80;1.03;;;18.50;99.90;;;;;;5035304;28;20206;-43
2022/07/07 10:34:48;;;;;;;0.93;0.90;;;18.40;99.90;;;;;;5035761;28;20226;-42
2022/07/07 10:37:15;;;;;;;3.53;1.40;;;18.50;99.90;;;;;;5030438;28;20200;-43
2022/07/07 10:39:45;;;;;;;1.63;1.20;;;18.60;99.90;;;;;;5030451;28;20920;-43
2022/07/07 10:42:44;;;;;;;2.00;1.10;;;18.70;99.90;;;;;;5042043;28;20219;-43
2022/07/07 10:45:12;;;;;;;1.93;1.10;;;18.70;99.90;;;;;;5018369;28;20643;-43
2022/07/07 10:47:39;;;;;;;3.50;1.30;;;18.80;99.90;;;;;;5030028;28;20393;-43
2022/07/07 10:50:26;;;;;;;3.97;1.20;;;18.90;99.90;;;;;;5035801;28;20207;-43
2022/07/07 10:52:54;;;;;;;1.57;0.87;;;18.90;99.90;;;;;;5041719;28;20645;-43
2022/07/07 10:55:20;;;;;;;2.30;0.90;;;18.90;99.90;;;;;;5033754;28;20286;-44
2022/07/07 10:57:49;;;;;;;3.73;1.10;;;18.90;99.90;;;;;;5041467;28;20218;-43
2022/07/07 11:00:19;;;;;;;1.37;0.80;;;18.90;99.90;;;;;;5033581;28;20202;-43
2022/07/07 11:02:49;;;;;;;5.27;1.47;;;18.90;99.90;;;;;;5037228;28;20258;-43
2022/07/07 11:05:30;;;;;;;1.53;1.20;;;18.80;99.90;;;;;;5029538;28;20210;-43
2022/07/07 11:08:12;;;;;;;1.83;0.90;;;18.80;99.90;;;;;;5036981;28;20295;-45
2022/07/07 11:11:00;;;;;;;2.27;1.53;;;18.70;99.90;;;;;;5036940;28;20199;-42
2022/07/07 11:13:34;;;;;;;2.20;1.17;;;18.60;99.90;;;;;;5035897;28;20215;-43
2022/07/07 11:16:16;;;;;;;3.17;1.70;;;18.50;99.90;;;;;;5037534;28;20227;-43
2022/07/07 11:18:47;;;;;;;3.93;1.10;;;18.60;99.90;;;;;;5036601;28;20195;-43
2022/07/07 11:21:14;;;;;;;3.03;1.30;;;18.60;99.90;;;;;;5024572;28;21071;-43
2022/07/07 11:23:51;;;;;;;1.93;0.93;;;18.60;99.90;;;;;;5041473;28;20215;-43
2022/07/07 11:26:19;;;;;;;3.20;1.40;;;18.60;99.90;;;;;;5021388;28;20217;-42
2022/07/07 11:28:48;;;;;;;1.93;1.27;;;18.60;99.90;;;;;;5042466;28;20257;-43
2022/07/07 11:31:15;;;;;;;7.10;1.67;;;18.60;99.90;;;;;;5039390;28;20246;-42
2022/07/07 11:33:42;;;;;;;3.30;1.30;;;18.50;99.90;;;;;;5030798;28;20223;-43
2022/07/07 11:36:11;;;;;;;2.10;1.23;;;18.40;99.90;;;;;;5032792;28;20834;-43
2022/07/07 11:38:38;;;;;;;1.93;0.80;;;18.30;99.90;;;;;;5039069;28;20203;-43
2022/07/07 11:41:05;;;;;;;2.50;1.20;;;18.20;99.90;;;;;;5025484;28;20220;-43
2022/07/07 11:43:32;;;;;;;1.40;1.23;;;18.20;99.90;;;;;;5037579;28;20230;-45
2022/07/07 11:46:01;;;;;;;1.60;1.17;;;18.30;99.90;;;;;;5033885;28;20200;-42
2022/07/07 11:48:35;;;;;;;3.73;1.17;;;18.30;99.90;;;;;;5023500;28;20207;-44
2022/07/07 11:51:02;;;;;;;1.33;0.70;;;18.30;99.90;;;;;;5037894;28;20203;-44
2022/07/07 11:53:28;;;;;;;2.83;0.60;;;18.20;99.90;;;;;;5028864;28;20265;-44
2022/07/07 11:55:55;;;;;;;0.93;0.50;;;18.20;99.90;;;;;;5037007;28;20200;-43
2022/07/07 11:58:22;;;;;;;1.60;0.80;;;18.20;99.90;;;;;;5021849;28;20887;-42
2022/07/07 12:00:54;;;;;;;1.33;1.10;;;18.10;99.90;;;;;;5015097;28;21158;-43
2022/07/07 12:03:30;;;;;;;2.50;0.80;;;18.10;99.90;;;;;;5029570;28;20234;-44
2022/07/07 12:05:58;;;;;;;2.67;0.87;;;18.00;99.90;;;;;;5017757;28;20206;-42
2022/07/07 12:08:33;;;;;;;2.17;0.70;;;17.90;99.90;;;;;;5042197;28;20960;-43
2022/07/07 12:11:01;;;;;;;3.60;1.00;;;17.90;99.90;;;;;;5040652;28;20226;-42
2022/07/07 12:13:28;;;;;;;1.30;0.80;;;17.90;99.90;;;;;;5040444;28;20212;-42
2022/07/07 12:15:57;;;;;;;3.83;1.00;;;17.70;99.90;;;;;;5042132;28;20235;-42
2022/07/07 12:18:38;;;;;;;5.93;1.80;;;17.60;99.90;;;;;;5042894;28;20202;-42
2022/07/07 12:21:06;;;;;;;3.27;1.37;;;17.50;99.90;;;;;;5016902;28;20219;-45
2022/07/07 12:23:39;;;;;;;3.43;1.10;;;17.50;99.90;;;;;;5043745;28;20227;-42
2022/07/07 12:26:18;;;;;;;4.27;1.70;;;17.60;99.90;;;;;;5038270;28;20214;-42
2022/07/07 12:28:46;;;;;;;3.03;1.20;;;17.80;99.90;;;;;;5043603;28;20661;-42
2022/07/07 12:31:18;;;;;;;5.10;1.47;;;18.00;99.90;;;;;;5034606;28;20191;-44
2022/07/07 12:33:47;;;;;;;6.67;1.60;;;18.20;99.90;;;;;;5043557;28;20223;-43
2022/07/07 12:36:15;;;;;;;4.00;1.70;;;18.40;99.90;;;;;;5020975;28;20489;-46
2022/07/07 12:38:45;;;;;;;8.00;2.03;;;18.50;99.90;;;;;;5043618;28;20561;-42
2022/07/07 12:41:24;;;;;;;4.90;1.63;;;18.90;99.90;;;;;;5040287;28;20308;-42
2022/07/07 12:43:52;;;;;;;5.13;1.93;;;19.00;99.90;;;;;;5035698;28;20577;-45
2022/07/07 12:46:19;;;;;;;5.77;1.87;;;18.90;99.90;;;;;;5034953;28;20223;-42
2022/07/07 12:48:50;;;;;;;7.00;1.70;;;18.70;99.90;;;;;;5043320;28;20199;-43
2022/07/07 12:51:23;;;;;;;6.90;1.50;;;18.70;99.90;;;;;;5025516;28;20871;-42
2022/07/07 12:53:50;;;;;;;6.27;1.40;;;18.70;99.90;;;;;;5025525;28;20232;-43